sensor_id;sensor_type;location;lat;lon;timestamp;temperature;humidity
31725;DHT22;18306;40.960;14.836;2023-05-25T17:21:13;26.20;99.90
31725;DHT22;18306;40.960;14.836;2023-05-25T17:24:07;26.30;99.90
31725;DHT22;18306;40.960;14.836;2023-05-25T17:26:35;26.20;99.90
31725;DHT22;18306;40.960;14.836;2023-05-25T17:29:13;26.30;99.90
31725;DHT22;18306;40.960;14.836;2023-05-25T17:31:44;26.40;99.90
31725;DHT22;18306;40.960;14.836;2023-05-25T17:34:36;26.30;99.90
31725;DHT22;18306;40.960;14.836;2023-05-25T17:37:09;26.20;99.90
31725;DHT22;18306;40.960;14.836;2023-05-25T17:40:02;26.00;99.90
31725;DHT22;18306;40.960;14.836;2023-05-25T17:42:36;26.00;99.90
31725;DHT22;18306;40.960;14.836;2023-05-25T17:45:10;26.00;99.90
31725;DHT22;18306;40.960;14.836;2023-05-25T17:47:37;26.00;99.90
31725;DHT22;18306;40.960;14.836;2023-05-25T17:50:05;25.80;99.90
31725;DHT22;18306;40.960;14.836;2023-05-25T17:52:32;25.70;99.90
31725;DHT22;18306;40.960;14.836;2023-05-25T17:54:59;25.80;99.90
31725;DHT22;18306;40.960;14.836;2023-05-25T17:57:26;25.90;99.90
31725;DHT22;18306;40.960;14.836;2023-05-25T17:59:54;25.90;99.90
31725;DHT22;18306;40.960;14.836;2023-05-25T18:02:21;25.80;99.90
31725;DHT22;18306;40.960;14.836;2023-05-25T18:04:48;25.80;99.90
31725;DHT22;18306;40.960;14.836;2023-05-25T18:07:15;25.70;99.90
31725;DHT22;18306;40.960;14.836;2023-05-25T18:09:43;25.50;99.90
31725;DHT22;18306;40.960;14.836;2023-05-25T18:12:10;25.30;99.90
31725;DHT22;18306;40.960;14.836;2023-05-25T18:14:37;25.30;99.90
31725;DHT22;18306;40.960;14.836;2023-05-25T18:17:04;25.30;99.90
31725;DHT22;18306;40.960;14.836;2023-05-25T18:19:31;25.20;99.90
31725;DHT22;18306;40.960;14.836;2023-05-25T18:21:58;25.20;99.90
31725;DHT22;18306;40.960;14.836;2023-05-25T18:24:25;25.10;99.90
31725;DHT22;18306;40.960;14.836;2023-05-25T18:26:53;25.10;99.90
31725;DHT22;18306;40.960;14.836;2023-05-25T18:29:20;25.10;99.90
31725;DHT22;18306;40.960;14.836;2023-05-25T18:31:47;25.10;99.90
31725;DHT22;18306;40.960;14.836;2023-05-25T18:34:14;25.00;99.90
31725;DHT22;18306;40.960;14.836;2023-05-25T18:36:41;24.90;99.90
31725;DHT22;18306;40.960;14.836;2023-05-25T18:39:10;24.80;99.90
31725;DHT22;18306;40.960;14.836;2023-05-25T18:41:37;24.70;99.90
31725;DHT22;18306;40.960;14.836;2023-05-25T18:44:07;24.60;99.90
31725;DHT22;18306;40.960;14.836;2023-05-25T18:46:34;24.50;99.90
31725;DHT22;18306;40.960;14.836;2023-05-25T18:49:05;24.40;99.90
31725;DHT22;18306;40.960;14.836;2023-05-25T18:51:32;24.40;99.90
31725;DHT22;18306;40.960;14.836;2023-05-25T18:54:02;24.30;99.90
31725;DHT22;18306;40.960;14.836;2023-05-25T18:56:30;24.10;99.90
31725;DHT22;18306;40.960;14.836;2023-05-25T18:58:57;24.10;99.90
31725;DHT22;18306;40.960;14.836;2023-05-25T19:01:24;24.00;99.90
31725;DHT22;18306;40.960;14.836;2023-05-25T19:03:52;23.80;99.90
31725;DHT22;18306;40.960;14.836;2023-05-25T19:06:21;23.70;99.90
31725;DHT22;18306;40.960;14.836;2023-05-25T19:08:49;23.60;99.90
31725;DHT22;18306;40.960;14.836;2023-05-25T19:11:19;23.50;99.90
31725;DHT22;18306;40.960;14.836;2023-05-25T19:13:48;23.40;99.90
31725;DHT22;18306;40.960;14.836;2023-05-25T19:16:16;23.20;99.90
31725;DHT22;18306;40.960;14.836;2023-05-25T19:18:45;23.10;99.90
31725;DHT22;18306;40.960;14.836;2023-05-25T19:21:14;23.00;99.90
31725;DHT22;18306;40.960;14.836;2023-05-25T19:23:46;22.90;99.90
31725;DHT22;18306;40.960;14.836;2023-05-25T19:26:22;22.80;99.90
31725;DHT22;18306;40.960;14.836;2023-05-25T19:28:56;22.80;99.90
31725;DHT22;18306;40.960;14.836;2023-05-25T19:31:28;22.90;99.90
31725;DHT22;18306;40.960;14.836;2023-05-25T19:33:57;22.90;99.90
31725;DHT22;18306;40.960;14.836;2023-05-25T19:37:02;22.80;99.90
31725;DHT22;18306;40.960;14.836;2023-05-25T19:39:38;22.60;99.90
31725;DHT22;18306;40.960;14.836;2023-05-25T19:42:08;22.60;99.90
31725;DHT22;18306;40.960;14.836;2023-05-25T19:44:40;22.60;99.90
31725;DHT22;18306;40.960;14.836;2023-05-25T19:47:18;22.50;99.90
31725;DHT22;18306;40.960;14.836;2023-05-25T19:50:05;22.50;99.90
31725;DHT22;18306;40.960;14.836;2023-05-25T19:52:39;22.70;99.90
31725;DHT22;18306;40.960;14.836;2023-05-25T19:55:11;22.80;99.90
31725;DHT22;18306;40.960;14.836;2023-05-25T19:57:40;22.80;99.90
31725;DHT22;18306;40.960;14.836;2023-05-25T20:00:09;22.70;99.90
31725;DHT22;18306;40.960;14.836;2023-05-25T20:02:43;22.60;99.90
31725;DHT22;18306;40.960;14.836;2023-05-25T20:05:11;22.70;99.90
31725;DHT22;18306;40.960;14.836;2023-05-25T20:07:40;22.60;99.90
31725;DHT22;18306;40.960;14.836;2023-05-25T20:10:11;22.70;99.90
31725;DHT22;18306;40.960;14.836;2023-05-25T20:12:42;22.60;99.90
31725;DHT22;18306;40.960;14.836;2023-05-25T20:15:10;22.50;99.90
31725;DHT22;18306;40.960;14.836;2023-05-25T20:17:40;22.60;99.90
31725;DHT22;18306;40.960;14.836;2023-05-25T20:20:08;22.70;99.90
31725;DHT22;18306;40.960;14.836;2023-05-25T20:22:37;22.60;99.90
31725;DHT22;18306;40.960;14.836;2023-05-25T20:25:07;22.50;99.90
31725;DHT22;18306;40.960;14.836;2023-05-25T20:27:40;22.50;99.90
31725;DHT22;18306;40.960;14.836;2023-05-25T20:30:08;22.40;99.90
31725;DHT22;18306;40.960;14.836;2023-05-25T20:32:35;22.30;99.90
31725;DHT22;18306;40.960;14.836;2023-05-25T20:35:08;22.20;99.90
31725;DHT22;18306;40.960;14.836;2023-05-25T20:37:39;22.10;99.90
31725;DHT22;18306;40.960;14.836;2023-05-25T20:40:15;22.10;99.90
31725;DHT22;18306;40.960;14.836;2023-05-25T20:42:44;22.20;99.90
31725;DHT22;18306;40.960;14.836;2023-05-25T20:45:13;22.20;99.90
31725;DHT22;18306;40.960;14.836;2023-05-25T20:47:51;22.20;99.90
31725;DHT22;18306;40.960;14.836;2023-05-25T20:50:29;22.10;99.90
31725;DHT22;18306;40.960;14.836;2023-05-25T20:52:57;21.90;99.90
31725;DHT22;18306;40.960;14.836;2023-05-25T20:55:26;21.70;99.90
31725;DHT22;18306;40.960;14.836;2023-05-25T20:57:56;21.70;99.90
31725;DHT22;18306;40.960;14.836;2023-05-25T21:00:27;21.50;99.90
31725;DHT22;18306;40.960;14.836;2023-05-25T21:02:55;21.60;99.90
31725;DHT22;18306;40.960;14.836;2023-05-25T21:05:25;21.60;99.90
31725;DHT22;18306;40.960;14.836;2023-05-25T21:08:04;21.70;99.90
31725;DHT22;18306;40.960;14.836;2023-05-25T21:10:43;21.80;99.90
31725;DHT22;18306;40.960;14.836;2023-05-25T21:13:11;21.80;99.90
31725;DHT22;18306;40.960;14.836;2023-05-25T21:15:38;21.80;99.90
31725;DHT22;18306;40.960;14.836;2023-05-25T21:18:07;21.70;99.90
31725;DHT22;18306;40.960;14.836;2023-05-25T21:20:37;21.70;99.90
31725;DHT22;18306;40.960;14.836;2023-05-25T21:23:07;21.70;99.90
31725;DHT22;18306;40.960;14.836;2023-05-25T21:25:36;21.60;99.90
31725;DHT22;18306;40.960;14.836;2023-05-25T21:28:11;21.40;99.90
31725;DHT22;18306;40.960;14.836;2023-05-25T21:30:38;21.30;99.90
31725;DHT22;18306;40.960;14.836;2023-05-25T21:33:06;21.20;99.90
31725;DHT22;18306;40.960;14.836;2023-05-25T21:35:34;21.20;99.90
31725;DHT22;18306;40.960;14.836;2023-05-25T21:38:11;21.10;99.90
31725;DHT22;18306;40.960;14.836;2023-05-25T21:40:39;21.10;99.90
31725;DHT22;18306;40.960;14.836;2023-05-25T21:43:09;21.00;99.90
31725;DHT22;18306;40.960;14.836;2023-05-25T21:45:38;20.90;99.90
31725;DHT22;18306;40.960;14.836;2023-05-25T21:48:08;20.70;99.90
31725;DHT22;18306;40.960;14.836;2023-05-25T21:50:36;20.80;99.90
31725;DHT22;18306;40.960;14.836;2023-05-25T21:53:09;21.00;99.90
31725;DHT22;18306;40.960;14.836;2023-05-25T21:55:58;20.90;99.90
31725;DHT22;18306;40.960;14.836;2023-05-25T21:58:30;20.80;99.90
31725;DHT22;18306;40.960;14.836;2023-05-25T22:00:58;20.70;99.90
31725;DHT22;18306;40.960;14.836;2023-05-25T22:03:26;20.80;99.90
31725;DHT22;18306;40.960;14.836;2023-05-25T22:05:55;21.10;99.90
31725;DHT22;18306;40.960;14.836;2023-05-25T22:08:22;20.80;99.90
31725;DHT22;18306;40.960;14.836;2023-05-25T22:10:50;20.80;99.90
31725;DHT22;18306;40.960;14.836;2023-05-25T22:13:19;20.70;99.90
31725;DHT22;18306;40.960;14.836;2023-05-25T22:15:46;20.50;99.90
31725;DHT22;18306;40.960;14.836;2023-05-25T22:18:16;20.30;99.90
31725;DHT22;18306;40.960;14.836;2023-05-25T22:20:45;20.30;99.90
31725;DHT22;18306;40.960;14.836;2023-05-25T22:23:12;20.30;99.90
31725;DHT22;18306;40.960;14.836;2023-05-25T22:25:48;20.20;99.90
31725;DHT22;18306;40.960;14.836;2023-05-25T22:28:18;20.20;99.90
31725;DHT22;18306;40.960;14.836;2023-05-25T22:30:47;20.20;99.90
31725;DHT22;18306;40.960;14.836;2023-05-25T22:33:14;20.30;99.90
31725;DHT22;18306;40.960;14.836;2023-05-25T22:35:41;20.30;99.90
31725;DHT22;18306;40.960;14.836;2023-05-25T22:38:09;20.10;99.90
31725;DHT22;18306;40.960;14.836;2023-05-25T22:40:40;20.00;99.90
31725;DHT22;18306;40.960;14.836;2023-05-25T22:43:14;19.80;99.90
31725;DHT22;18306;40.960;14.836;2023-05-25T22:45:41;19.80;99.90
31725;DHT22;18306;40.960;14.836;2023-05-25T22:48:10;19.80;99.90
31725;DHT22;18306;40.960;14.836;2023-05-25T22:50:39;19.60;99.90
31725;DHT22;18306;40.960;14.836;2023-05-25T22:53:07;19.50;99.90
31725;DHT22;18306;40.960;14.836;2023-05-25T22:55:34;19.40;99.90
31725;DHT22;18306;40.960;14.836;2023-05-25T22:58:02;19.30;99.90
31725;DHT22;18306;40.960;14.836;2023-05-25T23:00:29;19.30;99.90
31725;DHT22;18306;40.960;14.836;2023-05-25T23:02:59;18.90;99.90
31725;DHT22;18306;40.960;14.836;2023-05-25T23:05:26;19.20;99.90
31725;DHT22;18306;40.960;14.836;2023-05-25T23:07:53;19.30;99.90
31725;DHT22;18306;40.960;14.836;2023-05-25T23:10:21;19.30;99.90
31725;DHT22;18306;40.960;14.836;2023-05-25T23:12:54;19.30;99.90
31725;DHT22;18306;40.960;14.836;2023-05-25T23:15:21;19.40;99.90
31725;DHT22;18306;40.960;14.836;2023-05-25T23:17:48;19.40;99.90
31725;DHT22;18306;40.960;14.836;2023-05-25T23:20:15;19.40;99.90
31725;DHT22;18306;40.960;14.836;2023-05-25T23:22:42;19.30;99.90
31725;DHT22;18306;40.960;14.836;2023-05-25T23:25:10;19.20;99.90
31725;DHT22;18306;40.960;14.836;2023-05-25T23:27:37;19.20;99.90
31725;DHT22;18306;40.960;14.836;2023-05-25T23:30:05;19.10;99.90
31725;DHT22;18306;40.960;14.836;2023-05-25T23:32:34;19.20;99.90
31725;DHT22;18306;40.960;14.836;2023-05-25T23:35:02;19.20;99.90
31725;DHT22;18306;40.960;14.836;2023-05-25T23:37:29;19.20;99.90
31725;DHT22;18306;40.960;14.836;2023-05-25T23:39:56;19.20;99.90
31725;DHT22;18306;40.960;14.836;2023-05-25T23:42:26;19.20;99.90
31725;DHT22;18306;40.960;14.836;2023-05-25T23:44:56;19.30;99.90
31725;DHT22;18306;40.960;14.836;2023-05-25T23:47:24;19.30;99.90
31725;DHT22;18306;40.960;14.836;2023-05-25T23:49:51;19.30;99.90
31725;DHT22;18306;40.960;14.836;2023-05-25T23:52:18;19.20;99.90
31725;DHT22;18306;40.960;14.836;2023-05-25T23:54:45;19.20;99.90
31725;DHT22;18306;40.960;14.836;2023-05-25T23:57:16;19.20;99.90
31725;DHT22;18306;40.960;14.836;2023-05-25T23:59:44;19.10;99.90
